All Spectrum Aviation - Van Nuys Airport - KVNY

HOME

Condor Squadron KVNY Webcam

Visit our Electronics Store

Condor Squadron Webcam - Van Nuys Airport - KVNY
Picture taken: Tue, 20 Aug 2019 20:13:26 -0700
YouTube Channel!    Latest Timelapse Movie    Full Size Image    Regular Size Image    

2019/08/21 02:51 KVNY 210251Z 00000KT 10SM CLR 29/11 A2986 RMK AO2 SLP102 T02890111 53001

HOME

Condor Squadron KVNY Webcam

Visit our Electronics Store